createdAt,value
2023-01-17T00:02:53.911Z,64.85
2023-01-17T00:08:14.013Z,64.79
2023-01-17T00:13:15.720Z,64.71
2023-01-17T00:18:17.670Z,65.17
2023-01-17T00:23:40.809Z,64.76
2023-01-17T00:28:43.269Z,64.97
2023-01-17T00:33:45.014Z,64.93
2023-01-17T00:38:46.663Z,64.60
2023-01-17T00:44:07.156Z,64.77
2023-01-17T00:49:27.544Z,64.88
2023-01-17T00:54:48.102Z,64.94
2023-01-17T01:00:08.489Z,64.93
2023-01-17T01:05:31.063Z,65.03
2023-01-17T01:10:51.939Z,65.46
2023-01-17T01:16:12.337Z,65.24
2023-01-17T01:21:32.393Z,65.82
2023-01-17T01:26:53.321Z,66.10
2023-01-17T01:32:13.570Z,66.45
2023-01-17T01:37:15.310Z,66.45
2023-01-17T01:42:17.328Z,66.92
2023-01-17T01:47:34.269Z,67.17
2023-01-17T01:52:42.412Z,67.08
2023-01-17T01:57:47.941Z,67.34
2023-01-17T02:02:51.662Z,67.42
2023-01-17T02:08:07.642Z,67.54
2023-01-17T02:13:10.610Z,67.49
2023-01-17T02:18:43.788Z,67.70
2023-01-17T02:24:03.961Z,67.88
2023-01-17T02:29:39.698Z,68.18
2023-01-17T02:34:51.216Z,68.29
2023-01-17T02:40:02.976Z,68.30
2023-01-17T02:45:05.323Z,68.26
2023-01-17T02:50:27.870Z,68.59
2023-01-17T02:55:44.603Z,68.57
2023-01-17T03:01:04.876Z,68.85
2023-01-17T03:06:17.083Z,68.77
2023-01-17T03:11:19.230Z,68.92
2023-01-17T03:16:22.351Z,69.16
2023-01-17T03:21:24.928Z,69.03
2023-01-17T03:26:26.583Z,68.91
2023-01-17T03:31:28.295Z,68.97
2023-01-17T03:36:29.981Z,69.00
2023-01-17T03:41:32.297Z,69.38
2023-01-17T03:46:33.962Z,69.80
2023-01-17T03:51:35.638Z,69.91
2023-01-17T03:56:37.423Z,70.02
2023-01-17T04:01:39.453Z,70.88
2023-01-17T04:06:41.914Z,70.73
2023-01-17T04:11:43.597Z,70.94
2023-01-17T04:16:46.013Z,71.38
2023-01-17T04:21:47.837Z,71.41
2023-01-17T04:26:49.541Z,71.13
2023-01-17T04:31:51.459Z,71.06
2023-01-17T04:36:53.171Z,71.04
2023-01-17T04:41:55.822Z,70.88
2023-01-17T04:46:57.683Z,70.76
2023-01-17T04:51:59.556Z,70.77
2023-01-17T04:57:01.154Z,70.77
2023-01-17T05:02:02.832Z,70.36
2023-01-17T05:07:05.542Z,70.66
2023-01-17T05:12:07.191Z,70.39
2023-01-17T05:17:11.132Z,70.73
2023-01-17T05:22:16.791Z,70.87
2023-01-17T05:27:18.448Z,70.50
2023-01-17T05:32:20.103Z,70.62
2023-01-17T05:37:21.861Z,70.75
2023-01-17T05:42:23.579Z,70.98
2023-01-17T05:47:25.246Z,70.88
2023-01-17T05:52:26.981Z,71.62
2023-01-17T05:57:28.723Z,71.51
2023-01-17T06:02:30.412Z,71.71
2023-01-17T06:07:32.808Z,71.73
2023-01-17T06:12:34.890Z,72.46
2023-01-17T06:17:37.078Z,72.81
2023-01-17T06:22:39.114Z,73.20
2023-01-17T06:27:40.804Z,74.02
2023-01-17T06:32:42.642Z,72.88
2023-01-17T06:37:44.335Z,72.84
2023-01-17T06:42:46.069Z,72.96
2023-01-17T06:47:47.770Z,72.73
2023-01-17T06:53:03.807Z,72.87
2023-01-17T06:58:05.681Z,73.17
2023-01-17T07:03:16.503Z,73.09
2023-01-17T07:08:19.447Z,73.15
2023-01-17T07:13:21.151Z,73.45
2023-01-17T07:18:25.487Z,73.54
2023-01-17T07:23:27.220Z,73.85
2023-01-17T07:28:29.178Z,73.83
2023-01-17T07:33:30.774Z,73.60
2023-01-17T07:38:32.742Z,73.88
2023-01-17T07:43:35.428Z,74.04
2023-01-17T07:48:37.110Z,73.79
2023-01-17T07:53:38.765Z,73.88
2023-01-17T07:58:40.476Z,74.15
2023-01-17T08:03:42.369Z,74.60
2023-01-17T08:08:45.008Z,74.93
2023-01-17T08:13:48.267Z,74.77
2023-01-17T08:18:50.424Z,75.22
2023-01-17T08:23:52.744Z,75.80
2023-01-17T08:28:56.584Z,75.98
2023-01-17T08:33:58.436Z,76.18
2023-01-17T08:39:00.146Z,76.61
2023-01-17T08:44:02.715Z,76.96
2023-01-17T08:49:04.804Z,76.71
2023-01-17T08:54:06.663Z,76.50
2023-01-17T08:59:12.036Z,76.80
2023-01-17T09:04:14.769Z,76.99
2023-01-17T09:09:17.573Z,76.77
2023-01-17T09:14:19.410Z,76.42
2023-01-17T09:19:21.112Z,76.24
2023-01-17T09:24:22.939Z,75.25
2023-01-17T09:29:24.840Z,74.06
2023-01-17T09:34:26.759Z,73.08
2023-01-17T09:39:28.422Z,72.78
2023-01-17T09:44:42.985Z,72.30
2023-01-17T09:49:48.538Z,71.94
2023-01-17T09:54:51.443Z,71.81
2023-01-17T10:00:19.236Z,71.06
2023-01-17T10:05:55.005Z,70.47
2023-01-17T10:11:24.726Z,69.92
2023-01-17T10:16:32.295Z,69.04
2023-01-17T10:21:52.395Z,68.53
2023-01-17T10:26:56.314Z,68.01
2023-01-17T10:31:59.751Z,66.11
2023-01-17T10:37:31.028Z,65.54
2023-01-17T10:42:44.180Z,62.64
2023-01-17T10:47:51.375Z,61.84
2023-01-17T10:53:09.896Z,62.87
2023-01-17T10:58:13.154Z,62.70
2023-01-17T11:03:17.455Z,62.00
2023-01-17T11:08:21.939Z,61.30
2023-01-17T11:13:28.548Z,61.77
2023-01-17T11:18:33.320Z,61.16
2023-01-17T11:23:35.797Z,60.81
2023-01-17T11:28:41.444Z,60.25
2023-01-17T11:33:47.704Z,60.65
2023-01-17T11:39:17.439Z,61.21
2023-01-17T11:44:23.022Z,60.48
2023-01-17T11:49:25.636Z,59.66
2023-01-17T11:54:33.404Z,58.79
2023-01-17T11:59:40.113Z,59.90
2023-01-17T12:05:27.466Z,59.51
2023-01-17T12:10:52.410Z,59.58
2023-01-17T12:16:22.825Z,59.30
2023-01-17T12:21:39.790Z,58.93
2023-01-17T12:27:17.101Z,59.20
2023-01-17T12:32:31.861Z,58.82
2023-01-17T12:37:36.904Z,58.78
2023-01-17T12:42:43.818Z,59.11
2023-01-17T12:47:54.355Z,58.86
2023-01-17T12:53:02.514Z,59.06
2023-01-17T12:58:07.884Z,59.63
2023-01-17T13:03:16.843Z,60.20
2023-01-17T13:08:27.550Z,60.48
2023-01-17T13:13:31.257Z,60.72
2023-01-17T13:18:35.681Z,60.66
2023-01-17T13:23:59.301Z,60.55
2023-01-17T13:29:13.156Z,60.66
2023-01-17T13:34:47.071Z,60.60
2023-01-17T13:40:06.109Z,60.47
2023-01-17T13:45:17.623Z,60.35
2023-01-17T13:50:38.232Z,60.67
2023-01-17T13:55:53.146Z,60.25
2023-01-17T14:00:55.608Z,60.48
2023-01-17T14:05:57.349Z,60.42
2023-01-17T14:11:09.814Z,60.83
2023-01-17T14:16:20.993Z,60.90
2023-01-17T14:21:32.266Z,61.14
2023-01-17T14:26:43.147Z,61.33
2023-01-17T14:31:45.326Z,61.51
2023-01-17T14:36:47.090Z,61.52
2023-01-17T14:41:48.987Z,61.31
2023-01-17T14:46:50.899Z,61.37
2023-01-17T14:52:06.277Z,61.31
2023-01-17T14:57:15.372Z,61.50
2023-01-17T15:02:18.536Z,61.85
2023-01-17T15:07:20.479Z,61.82
2023-01-17T15:12:22.194Z,61.82
2023-01-17T15:17:24.809Z,62.25
2023-01-17T15:22:26.752Z,62.83
2023-01-17T15:27:28.638Z,63.21
2023-01-17T15:32:33.205Z,63.33
2023-01-17T15:37:37.420Z,63.47
2023-01-17T15:42:43.262Z,63.19
2023-01-17T15:47:45.078Z,63.62
2023-01-17T15:52:49.138Z,63.41
2023-01-17T15:57:50.889Z,64.10
2023-01-17T16:02:58.645Z,64.19
2023-01-17T16:08:04.196Z,64.42
2023-01-17T16:13:07.667Z,64.63
2023-01-17T16:18:24.785Z,64.70
2023-01-17T16:23:27.777Z,64.67
2023-01-17T16:28:29.480Z,64.98
2023-01-17T16:33:31.103Z,65.13
2023-01-17T16:38:32.836Z,65.41
2023-01-17T16:43:34.680Z,65.69
2023-01-17T16:48:37.471Z,65.83
2023-01-17T16:53:39.080Z,65.81
2023-01-17T16:58:41.433Z,66.02
2023-01-17T17:03:44.133Z,66.32
2023-01-17T17:08:45.892Z,66.65
2023-01-17T17:13:49.231Z,66.81
2023-01-17T17:18:58.849Z,66.83
2023-01-17T17:24:01.829Z,67.27
2023-01-17T17:29:04.782Z,67.75
2023-01-17T17:34:09.863Z,67.72
2023-01-17T17:39:14.832Z,68.20
2023-01-17T17:44:17.709Z,67.92
2023-01-17T17:49:22.179Z,68.31
2023-01-17T17:54:24.734Z,68.84
2023-01-17T17:59:26.564Z,68.61
2023-01-17T18:04:28.301Z,68.85
2023-01-17T18:09:30.419Z,69.12
2023-01-17T18:14:32.302Z,69.50
2023-01-17T18:19:33.994Z,69.54
2023-01-17T18:24:35.702Z,69.81
2023-01-17T18:29:37.480Z,69.88
2023-01-17T18:34:41.433Z,70.04
2023-01-17T18:39:43.768Z,70.67
2023-01-17T18:44:45.553Z,70.76
2023-01-17T18:49:47.362Z,70.90
2023-01-17T18:54:49.015Z,70.97
2023-01-17T18:59:50.948Z,71.17
2023-01-17T19:04:52.602Z,71.41
2023-01-17T19:09:54.310Z,71.12
2023-01-17T19:14:55.985Z,70.89
2023-01-17T19:19:57.704Z,70.96
2023-01-17T19:24:59.461Z,70.98
2023-01-17T19:30:01.134Z,71.00
2023-01-17T19:35:02.865Z,71.37
2023-01-17T19:40:05.047Z,71.71
2023-01-17T19:45:12.159Z,72.07
2023-01-17T19:50:14.838Z,72.41
2023-01-17T19:55:17.637Z,72.41
2023-01-17T20:00:20.564Z,72.51
2023-01-17T20:05:22.417Z,72.86
2023-01-17T20:10:25.131Z,73.75
2023-01-17T20:15:27.942Z,73.84
2023-01-17T20:20:32.436Z,74.60
2023-01-17T20:25:34.101Z,75.24
2023-01-17T20:30:35.778Z,75.93
2023-01-17T20:35:37.601Z,76.37
2023-01-17T20:40:39.289Z,76.47
2023-01-17T20:45:41.103Z,76.79
2023-01-17T20:50:42.837Z,77.33
2023-01-17T20:55:44.507Z,78.35
2023-01-17T21:00:46.191Z,78.63
2023-01-17T21:05:47.860Z,78.46
2023-01-17T21:10:49.980Z,78.61
2023-01-17T21:15:52.540Z,78.66
2023-01-17T21:20:54.241Z,78.60
2023-01-17T21:25:58.865Z,78.77
2023-01-17T21:31:00.710Z,78.65
2023-01-17T21:36:08.388Z,78.71
2023-01-17T21:41:10.089Z,78.11
2023-01-17T21:46:11.956Z,78.37
2023-01-17T21:51:13.859Z,78.46
2023-01-17T21:56:34.683Z,78.32
2023-01-17T22:01:36.466Z,77.71
2023-01-17T22:06:41.102Z,77.77
2023-01-17T22:11:42.748Z,77.91
2023-01-17T22:16:44.381Z,77.34
2023-01-17T22:21:46.020Z,77.70
2023-01-17T22:26:47.816Z,77.99
2023-01-17T22:31:49.517Z,78.11
2023-01-17T22:36:51.172Z,77.96
2023-01-17T22:41:52.805Z,78.09
2023-01-17T22:46:54.511Z,78.43
2023-01-17T22:51:56.230Z,78.04
2023-01-17T22:56:58.781Z,77.55
2023-01-17T23:02:00.587Z,78.22
2023-01-17T23:07:02.335Z,78.19
2023-01-17T23:12:03.937Z,78.13
2023-01-17T23:17:24.466Z,78.64
2023-01-17T23:22:28.964Z,78.69
2023-01-17T23:27:59.268Z,78.79
2023-01-17T23:33:04.002Z,78.62
2023-01-17T23:38:25.034Z,79.17
2023-01-17T23:43:26.668Z,79.46
2023-01-17T23:48:28.785Z,79.15
2023-01-17T23:53:30.522Z,78.92
2023-01-17T23:58:33.412Z,79.29
